createdAt,value
2023-01-28T00:00:07.375Z,98211.53
2023-01-28T00:02:37.823Z,98215.94
2023-01-28T00:05:07.851Z,98213.84
2023-01-28T00:07:36.375Z,98211.59
2023-01-28T00:10:05.593Z,98215.16
2023-01-28T00:12:34.132Z,98208.91
2023-01-28T00:15:02.656Z,98213.00
2023-01-28T00:17:31.365Z,98216.00
2023-01-28T00:20:01.256Z,98211.22
2023-01-28T00:22:29.865Z,98224.28
2023-01-28T00:24:58.620Z,98217.41
2023-01-28T00:27:27.412Z,98223.00
2023-01-28T00:29:55.987Z,98223.91
2023-01-28T00:32:24.579Z,98221.50
2023-01-28T00:34:55.037Z,98223.31
2023-01-28T00:37:25.079Z,98227.97
2023-01-28T00:39:53.699Z,98219.81
2023-01-28T00:42:22.329Z,98222.56
2023-01-28T00:44:50.902Z,98224.41
2023-01-28T00:47:19.488Z,98222.25
2023-01-28T00:49:48.018Z,98225.44
2023-01-28T00:52:16.627Z,98225.00
2023-01-28T00:54:46.589Z,98223.06
2023-01-28T00:57:15.177Z,98233.78
2023-01-28T00:59:43.805Z,98219.75
2023-01-28T01:02:15.094Z,98226.91
2023-01-28T01:04:54.847Z,98229.16
2023-01-28T01:07:32.143Z,98225.97
2023-01-28T01:10:03.162Z,98224.63
2023-01-28T01:12:32.107Z,98227.47
2023-01-28T01:15:02.510Z,98234.69
2023-01-28T01:17:32.932Z,98229.91
2023-01-28T01:20:01.475Z,98226.56
2023-01-28T01:22:31.315Z,98230.97
2023-01-28T01:24:59.895Z,98229.72
2023-01-28T01:27:30.035Z,98237.63
2023-01-28T01:30:00.820Z,98236.75
2023-01-28T01:32:31.901Z,98232.97
2023-01-28T01:35:01.043Z,98237.75
2023-01-28T01:37:30.022Z,98247.13
2023-01-28T01:39:58.649Z,98241.00
2023-01-28T01:42:27.488Z,98245.53
2023-01-28T01:45:02.767Z,98243.31
2023-01-28T01:47:41.436Z,98246.63
2023-01-28T01:50:20.628Z,98248.16
2023-01-28T01:52:54.317Z,98241.25
2023-01-28T01:55:26.842Z,98239.31
2023-01-28T01:58:02.999Z,98241.81
2023-01-28T02:00:32.967Z,98246.47
2023-01-28T02:03:02.533Z,98241.44
2023-01-28T02:05:31.096Z,98245.47
2023-01-28T02:08:21.072Z,98245.53
2023-01-28T02:10:55.250Z,98241.03
2023-01-28T02:13:29.558Z,98245.09
2023-01-28T02:16:02.923Z,98256.22
2023-01-28T02:18:32.745Z,98245.94
2023-01-28T02:21:57.439Z,98245.31
2023-01-28T02:25:00.023Z,98255.34
2023-01-28T02:27:41.098Z,98258.34
2023-01-28T02:30:21.365Z,98253.31
2023-01-28T02:32:58.616Z,98260.00
2023-01-28T02:35:38.907Z,98268.72
2023-01-28T02:38:13.568Z,98267.91
2023-01-28T02:41:02.893Z,98276.31
2023-01-28T02:43:34.828Z,98277.44
2023-01-28T02:46:40.232Z,98278.91
2023-01-28T02:49:16.574Z,98281.91
2023-01-28T02:52:12.465Z,98281.41
2023-01-28T02:54:52.949Z,98281.69
2023-01-28T02:57:38.109Z,98280.88
2023-01-28T03:00:17.824Z,98280.44
2023-01-28T03:02:59.700Z,98276.66
2023-01-28T03:05:36.722Z,98282.84
2023-01-28T03:08:23.802Z,98269.38
2023-01-28T03:11:11.088Z,98277.31
2023-01-28T03:13:59.067Z,98273.22
2023-01-28T03:16:45.800Z,98277.41
2023-01-28T03:19:36.089Z,98279.59
2023-01-28T03:22:23.555Z,98270.03
2023-01-28T03:25:13.588Z,98273.84
2023-01-28T03:28:09.538Z,98270.44
2023-01-28T03:31:02.850Z,98276.75
2023-01-28T03:33:59.983Z,98280.00
2023-01-28T03:36:50.571Z,98282.09
2023-01-28T03:39:34.149Z,98289.59
2023-01-28T03:42:08.021Z,98286.66
2023-01-28T03:44:53.008Z,98294.38
2023-01-28T03:47:25.189Z,98285.03
2023-01-28T03:49:56.596Z,98293.78
2023-01-28T03:52:29.978Z,98292.63
2023-01-28T03:55:14.902Z,98291.84
2023-01-28T03:57:45.289Z,98295.72
2023-01-28T04:00:17.186Z,98297.19
2023-01-28T04:02:46.300Z,98293.78
2023-01-28T04:05:20.244Z,98295.16
2023-01-28T04:07:52.264Z,98294.56
2023-01-28T04:10:40.582Z,98296.97
2023-01-28T04:13:16.013Z,98296.88
2023-01-28T04:15:45.730Z,98292.25
2023-01-28T04:18:16.334Z,98293.88
2023-01-28T04:20:45.005Z,98292.81
2023-01-28T04:23:14.941Z,98296.22
2023-01-28T04:25:43.706Z,98295.59
2023-01-28T04:28:12.717Z,98304.25
2023-01-28T04:30:41.382Z,98306.59
2023-01-28T04:33:36.116Z,98313.25
2023-01-28T04:36:14.679Z,98317.13
2023-01-28T04:39:01.461Z,98317.63
2023-01-28T04:41:41.871Z,98322.22
2023-01-28T04:44:19.779Z,98328.25
2023-01-28T04:46:54.501Z,98324.34
2023-01-28T04:49:35.643Z,98335.69
2023-01-28T04:52:23.181Z,98336.81
2023-01-28T04:55:20.510Z,98334.31
2023-01-28T04:57:49.798Z,98331.88
2023-01-28T05:00:20.832Z,98335.75
2023-01-28T05:02:50.223Z,98334.13
2023-01-28T05:05:18.852Z,98332.06
2023-01-28T05:08:00.020Z,98326.88
2023-01-28T05:10:30.224Z,98322.66
2023-01-28T05:12:59.635Z,98327.94
2023-01-28T05:15:28.235Z,98327.03
2023-01-28T05:17:57.419Z,98330.13
2023-01-28T05:20:27.481Z,98333.56
2023-01-28T05:22:58.576Z,98336.00
2023-01-28T05:25:38.236Z,98328.13
2023-01-28T05:28:07.015Z,98332.03
2023-01-28T05:30:35.777Z,98327.41
2023-01-28T05:33:04.353Z,98334.91
2023-01-28T05:35:33.066Z,98331.44
2023-01-28T05:38:01.638Z,98331.88
2023-01-28T05:40:31.481Z,98328.59
2023-01-28T05:43:01.551Z,98324.84
2023-01-28T05:45:40.327Z,98331.69
2023-01-28T05:48:34.943Z,98335.75
2023-01-28T05:51:18.376Z,98334.56
2023-01-28T05:53:54.732Z,98334.22
2023-01-28T05:56:24.606Z,98328.44
2023-01-28T05:58:55.942Z,98335.47
2023-01-28T06:01:24.643Z,98331.63
2023-01-28T06:03:56.356Z,98332.66
2023-01-28T06:06:25.632Z,98339.16
2023-01-28T06:08:54.842Z,98339.91
2023-01-28T06:11:28.557Z,98348.19
2023-01-28T06:14:02.947Z,98343.59
2023-01-28T06:16:52.159Z,98353.13
2023-01-28T06:19:47.063Z,98354.53
2023-01-28T06:22:15.799Z,98357.84
2023-01-28T06:24:44.402Z,98361.50
2023-01-28T06:27:13.161Z,98367.03
2023-01-28T06:29:43.238Z,98367.03
2023-01-28T06:32:11.852Z,98358.44
2023-01-28T06:34:40.478Z,98368.41
2023-01-28T06:37:09.073Z,98376.31
2023-01-28T06:39:37.619Z,98374.97
2023-01-28T06:42:06.655Z,98377.72
2023-01-28T06:44:35.508Z,98376.13
2023-01-28T06:47:05.869Z,98392.78
2023-01-28T06:49:34.449Z,98389.53
2023-01-28T06:52:03.057Z,98391.28
2023-01-28T06:54:31.852Z,98392.44
2023-01-28T06:57:00.966Z,98394.00
2023-01-28T06:59:29.494Z,98395.03
2023-01-28T07:01:58.136Z,98396.84
2023-01-28T07:04:28.213Z,98399.34
2023-01-28T07:06:56.938Z,98404.03
2023-01-28T07:09:25.619Z,98410.88
2023-01-28T07:11:54.509Z,98419.88
2023-01-28T07:14:23.194Z,98415.63
2023-01-28T07:16:51.837Z,98413.44
2023-01-28T07:19:20.460Z,98422.03
2023-01-28T07:21:50.424Z,98418.03
2023-01-28T07:24:18.994Z,98427.72
2023-01-28T07:26:49.543Z,98427.84
2023-01-28T07:29:18.126Z,98430.59
2023-01-28T07:31:46.792Z,98423.97
2023-01-28T07:34:15.735Z,98422.72
2023-01-28T07:36:44.429Z,98421.25
2023-01-28T07:39:14.470Z,98419.47
2023-01-28T07:41:43.314Z,98416.16
2023-01-28T07:44:12.996Z,98420.34
2023-01-28T07:46:41.692Z,98422.53
2023-01-28T07:49:10.426Z,98429.03
2023-01-28T07:51:39.442Z,98426.59
2023-01-28T07:54:08.231Z,98429.03
2023-01-28T07:56:38.365Z,98433.75
2023-01-28T07:59:07.144Z,98438.28
2023-01-28T08:01:36.035Z,98442.94
2023-01-28T08:04:05.109Z,98439.31
2023-01-28T08:06:37.875Z,98444.28
2023-01-28T08:09:08.527Z,98449.09
2023-01-28T08:11:40.338Z,98456.00
2023-01-28T08:14:09.062Z,98454.53
2023-01-28T08:16:38.003Z,98458.59
2023-01-28T08:19:07.736Z,98453.59
2023-01-28T08:21:36.414Z,98458.66
2023-01-28T08:24:05.391Z,98460.16
2023-01-28T08:26:34.128Z,98452.09
2023-01-28T08:29:04.179Z,98462.16
2023-01-28T08:31:33.291Z,98466.00
2023-01-28T08:34:02.486Z,98463.31
2023-01-28T08:36:31.346Z,98455.97
2023-01-28T08:39:00.006Z,98461.50
2023-01-28T08:41:28.938Z,98468.00
2023-01-28T08:43:57.939Z,98471.75
2023-01-28T08:46:27.997Z,98461.22
2023-01-28T08:48:59.806Z,98461.75
2023-01-28T08:51:28.588Z,98458.53
2023-01-28T08:53:57.275Z,98462.19
2023-01-28T08:56:25.983Z,98463.72
2023-01-28T08:58:54.590Z,98462.31
2023-01-28T09:01:23.306Z,98466.84
2023-01-28T09:03:53.290Z,98461.94
2023-01-28T09:06:21.908Z,98459.56
2023-01-28T09:08:50.631Z,98465.03
2023-01-28T09:11:19.405Z,98467.69
2023-01-28T09:13:48.079Z,98463.31
2023-01-28T09:16:16.866Z,98461.91
2023-01-28T09:18:45.524Z,98470.34
2023-01-28T09:21:15.905Z,98473.88
2023-01-28T09:23:44.919Z,98471.84
2023-01-28T09:26:13.925Z,98479.19
2023-01-28T09:28:42.735Z,98484.63
2023-01-28T09:31:13.563Z,98486.47
2023-01-28T09:33:42.671Z,98483.00
2023-01-28T09:36:14.658Z,98485.34
2023-01-28T09:38:43.299Z,98489.03
2023-01-28T09:41:28.077Z,98494.47
2023-01-28T09:44:23.695Z,98490.22
2023-01-28T09:46:52.878Z,98482.47
2023-01-28T09:49:29.057Z,98494.31
2023-01-28T09:51:59.092Z,98485.72
2023-01-28T09:54:42.570Z,98486.44
2023-01-28T09:57:21.878Z,98492.84
2023-01-28T09:59:51.014Z,98486.28
2023-01-28T10:02:43.873Z,98483.88
2023-01-28T10:05:27.475Z,98483.34
2023-01-28T10:08:15.409Z,98484.72
2023-01-28T10:10:52.642Z,98483.25
2023-01-28T10:13:39.858Z,98488.81
2023-01-28T10:16:24.515Z,98490.78
2023-01-28T10:19:17.182Z,98493.00
2023-01-28T10:22:01.123Z,98495.06
2023-01-28T10:24:36.748Z,98491.38
2023-01-28T10:27:15.547Z,98493.56
2023-01-28T10:29:46.497Z,98500.94
2023-01-28T10:32:27.425Z,98494.13
2023-01-28T10:34:59.657Z,98497.63
2023-01-28T10:37:29.588Z,98499.72
2023-01-28T10:40:03.091Z,98498.34
2023-01-28T10:42:34.570Z,98504.41
2023-01-28T10:45:15.660Z,98492.31
2023-01-28T10:47:50.242Z,98495.47
2023-01-28T10:50:24.267Z,98496.00
2023-01-28T10:52:57.556Z,98498.75
2023-01-28T10:55:31.975Z,98488.44
2023-01-28T10:58:01.557Z,98496.25
2023-01-28T11:00:36.837Z,98494.25
2023-01-28T11:03:05.748Z,98494.44
2023-01-28T11:05:34.568Z,98487.44
2023-01-28T11:08:14.784Z,98481.03
2023-01-28T11:10:46.021Z,98484.69
2023-01-28T11:13:21.077Z,98488.44
2023-01-28T11:15:52.567Z,98483.78
2023-01-28T11:18:26.830Z,98480.19
2023-01-28T11:20:59.447Z,98488.28
2023-01-28T11:23:33.331Z,98478.16
2023-01-28T11:26:15.345Z,98491.91
2023-01-28T11:28:45.002Z,98489.41
2023-01-28T11:31:17.599Z,98490.44
2023-01-28T11:33:51.799Z,98488.91
2023-01-28T11:36:23.631Z,98490.84
2023-01-28T11:38:55.460Z,98491.19
2023-01-28T11:41:33.114Z,98492.16
2023-01-28T11:44:16.486Z,98485.59
2023-01-28T11:47:15.865Z,98483.38
2023-01-28T11:50:06.809Z,98480.66
2023-01-28T11:53:06.390Z,98472.97
2023-01-28T11:55:53.984Z,98467.38
2023-01-28T11:58:34.898Z,98470.59
2023-01-28T12:01:13.581Z,98466.03
2023-01-28T12:04:18.553Z,98463.25
2023-01-28T12:07:12.944Z,98463.38
2023-01-28T12:09:55.410Z,98462.81
2023-01-28T12:12:51.159Z,98469.19
2023-01-28T12:15:52.191Z,98465.09
2023-01-28T12:18:54.336Z,98468.41
2023-01-28T12:21:38.304Z,98458.66
2023-01-28T12:24:26.358Z,98465.34
2023-01-28T12:27:09.816Z,98459.41
2023-01-28T12:29:49.950Z,98460.38
2023-01-28T12:32:44.962Z,98461.94
2023-01-28T12:35:36.529Z,98461.84
2023-01-28T12:38:16.981Z,98462.38
2023-01-28T12:41:04.336Z,98473.69
2023-01-28T12:43:55.830Z,98466.13
2023-01-28T12:46:39.180Z,98468.50
2023-01-28T12:49:17.753Z,98462.50
2023-01-28T12:52:01.181Z,98471.22
2023-01-28T12:54:40.131Z,98464.25
2023-01-28T12:57:16.034Z,98462.75
2023-01-28T12:59:51.004Z,98461.50
2023-01-28T13:02:30.833Z,98462.00
2023-01-28T13:05:11.857Z,98470.50
2023-01-28T13:07:47.016Z,98473.31
2023-01-28T13:10:26.513Z,98467.28
2023-01-28T13:12:56.621Z,98465.50
2023-01-28T13:15:26.756Z,98473.94
2023-01-28T13:18:00.313Z,98477.13
2023-01-28T13:20:53.005Z,98478.47
2023-01-28T13:23:37.182Z,98475.53
2023-01-28T13:26:27.903Z,98473.81
2023-01-28T13:29:18.920Z,98462.25
2023-01-28T13:31:52.298Z,98464.75
2023-01-28T13:34:36.237Z,98480.91
2023-01-28T13:37:23.516Z,98476.28
2023-01-28T13:40:03.103Z,98471.91
2023-01-28T13:42:35.915Z,98482.38
2023-01-28T13:45:25.399Z,98477.28
2023-01-28T13:48:01.292Z,98485.59
2023-01-28T13:50:41.542Z,98488.59
2023-01-28T13:53:30.443Z,98497.13
2023-01-28T13:56:04.100Z,98488.59
2023-01-28T13:59:08.183Z,98490.66
2023-01-28T14:02:05.529Z,98498.75
2023-01-28T14:04:58.889Z,98499.00
2023-01-28T14:08:10.207Z,98498.06
2023-01-28T14:11:01.140Z,98507.69
2023-01-28T14:14:06.897Z,98508.09
2023-01-28T14:16:52.062Z,98510.03
2023-01-28T14:19:28.777Z,98510.09
2023-01-28T14:21:57.888Z,98507.97
2023-01-28T14:24:28.373Z,98507.84
2023-01-28T14:27:08.406Z,98510.78
2023-01-28T14:30:03.933Z,98514.09
2023-01-28T14:32:35.373Z,98511.09
2023-01-28T14:35:10.546Z,98504.00
2023-01-28T14:37:40.188Z,98513.59
2023-01-28T14:40:17.838Z,98518.47
2023-01-28T14:42:53.414Z,98510.44
2023-01-28T14:45:43.438Z,98527.06
2023-01-28T14:48:26.776Z,98519.84
2023-01-28T14:51:21.500Z,98524.94
2023-01-28T14:54:15.082Z,98531.94
2023-01-28T14:57:09.942Z,98533.38
2023-01-28T14:59:48.307Z,98524.78
2023-01-28T15:02:21.959Z,98519.97
2023-01-28T15:04:52.802Z,98523.63
2023-01-28T15:07:24.733Z,98525.34
2023-01-28T15:10:02.723Z,98529.34
2023-01-28T15:12:38.787Z,98535.75
2023-01-28T15:15:19.294Z,98544.66
2023-01-28T15:17:49.568Z,98548.63
2023-01-28T15:20:22.658Z,98552.84
2023-01-28T15:22:53.058Z,98553.34
2023-01-28T15:25:25.380Z,98551.00
2023-01-28T15:27:59.993Z,98549.72
2023-01-28T15:30:32.983Z,98556.97
2023-01-28T15:33:05.665Z,98553.91
2023-01-28T15:35:37.520Z,98560.91
2023-01-28T15:38:06.676Z,98560.47
2023-01-28T15:40:44.096Z,98566.34
2023-01-28T15:43:23.236Z,98568.50
2023-01-28T15:45:56.531Z,98578.25
2023-01-28T15:48:29.371Z,98566.00
2023-01-28T15:51:04.399Z,98577.50
2023-01-28T15:53:38.043Z,98571.25
2023-01-28T15:56:10.374Z,98587.66
2023-01-28T15:58:41.714Z,98577.56
2023-01-28T16:01:21.700Z,98583.38
2023-01-28T16:04:05.037Z,98581.50
2023-01-28T16:06:38.517Z,98584.66
2023-01-28T16:09:19.573Z,98587.13
2023-01-28T16:11:48.211Z,98598.19
2023-01-28T16:14:28.166Z,98594.03
2023-01-28T16:16:59.168Z,98599.44
2023-01-28T16:19:37.478Z,98605.09
2023-01-28T16:22:07.811Z,98609.34
2023-01-28T16:24:37.579Z,98604.81
2023-01-28T16:27:20.361Z,98606.91
2023-01-28T16:29:49.080Z,98611.88
2023-01-28T16:32:32.188Z,98614.88
2023-01-28T16:35:01.212Z,98614.63
2023-01-28T16:37:30.492Z,98624.53
2023-01-28T16:40:01.449Z,98627.38
2023-01-28T16:42:33.408Z,98629.97
2023-01-28T16:45:02.083Z,98624.47
2023-01-28T16:47:32.350Z,98637.88
2023-01-28T16:50:01.431Z,98639.31
2023-01-28T16:52:30.649Z,98632.19
2023-01-28T16:54:59.316Z,98636.25
2023-01-28T16:57:28.106Z,98631.44
2023-01-28T16:59:56.674Z,98629.09
2023-01-28T17:02:25.472Z,98622.84
2023-01-28T17:04:56.019Z,98627.50
2023-01-28T17:07:24.700Z,98626.91
2023-01-28T17:09:53.341Z,98630.16
2023-01-28T17:12:22.007Z,98631.38
2023-01-28T17:14:50.737Z,98628.94
2023-01-28T17:17:19.326Z,98636.63
2023-01-28T17:19:48.060Z,98641.22
2023-01-28T17:22:18.140Z,98632.69
2023-01-28T17:24:46.925Z,98633.41
2023-01-28T17:27:16.827Z,98648.59
2023-01-28T17:29:45.549Z,98645.81
2023-01-28T17:32:14.339Z,98632.84
2023-01-28T17:34:43.016Z,98634.13
2023-01-28T17:37:11.625Z,98639.47
2023-01-28T17:39:42.870Z,98650.78
2023-01-28T17:42:11.572Z,98648.03
2023-01-28T17:44:41.191Z,98647.22
2023-01-28T17:47:10.035Z,98648.09
2023-01-28T17:49:38.858Z,98655.81
2023-01-28T17:52:07.950Z,98654.63
2023-01-28T17:54:36.631Z,98653.53
2023-01-28T17:57:06.814Z,98661.97
2023-01-28T17:59:35.443Z,98660.69
2023-01-28T18:02:05.768Z,98672.22
2023-01-28T18:04:39.881Z,98664.88
2023-01-28T18:07:11.800Z,98656.44
2023-01-28T18:09:41.840Z,98656.63
2023-01-28T18:12:15.488Z,98657.84
2023-01-28T18:14:44.141Z,98666.22
2023-01-28T18:17:13.427Z,98663.63
2023-01-28T18:19:42.525Z,98661.13
2023-01-28T18:22:11.430Z,98661.91
2023-01-28T18:24:39.963Z,98670.13
2023-01-28T18:27:08.692Z,98671.34
2023-01-28T18:29:38.773Z,98674.16
2023-01-28T18:32:07.580Z,98672.34
2023-01-28T18:34:36.713Z,98662.75
2023-01-28T18:37:07.627Z,98659.88
2023-01-28T18:39:37.918Z,98657.78
2023-01-28T18:42:07.912Z,98655.03
2023-01-28T18:44:38.599Z,98653.88
2023-01-28T18:47:07.439Z,98644.91
2023-01-28T18:49:36.091Z,98658.25
2023-01-28T18:52:05.004Z,98652.63
2023-01-28T18:54:33.947Z,98656.78
2023-01-28T18:57:02.882Z,98652.34
2023-01-28T18:59:34.287Z,98656.13
2023-01-28T19:02:04.543Z,98653.53
2023-01-28T19:04:33.219Z,98656.97
2023-01-28T19:07:02.161Z,98664.75
2023-01-28T19:09:30.713Z,98662.09
2023-01-28T19:12:00.177Z,98667.72
2023-01-28T19:14:28.889Z,98673.31
2023-01-28T19:16:57.506Z,98678.34
2023-01-28T19:25:31.735Z,98681.84
2023-01-28T19:28:01.671Z,98678.97
2023-01-28T19:30:30.381Z,98681.66
2023-01-28T19:32:59.173Z,98680.13
2023-01-28T19:35:28.372Z,98680.19
2023-01-28T19:37:57.394Z,98684.75
2023-01-28T19:40:26.099Z,98678.66
2023-01-28T19:42:55.506Z,98686.69
2023-01-28T19:45:25.742Z,98703.09
2023-01-28T19:47:54.611Z,98710.41
2023-01-28T19:50:23.354Z,98704.19
2023-01-28T19:52:52.005Z,98703.19
2023-01-28T19:55:20.694Z,98706.03
2023-01-28T19:57:50.779Z,98710.28
2023-01-28T20:00:20.342Z,98713.19
2023-01-28T20:02:53.119Z,98712.41
2023-01-28T20:05:21.953Z,98719.63
2023-01-28T20:07:50.869Z,98711.59
2023-01-28T20:10:19.953Z,98717.88
2023-01-28T20:12:48.674Z,98729.31
2023-01-28T20:15:18.092Z,98720.28
2023-01-28T20:17:47.118Z,98715.16
2023-01-28T20:20:18.207Z,98715.06
2023-01-28T20:22:46.985Z,98715.16
2023-01-28T20:25:16.680Z,98727.03
2023-01-28T20:27:45.688Z,98723.22
2023-01-28T20:30:16.172Z,98722.44
2023-01-28T20:32:44.805Z,98732.47
2023-01-28T20:35:13.940Z,98746.59
2023-01-28T20:37:44.380Z,98737.41
2023-01-28T20:40:14.958Z,98741.72
2023-01-28T20:42:43.577Z,98747.03
2023-01-28T20:45:12.678Z,98755.06
2023-01-28T20:47:41.604Z,98756.72
2023-01-28T20:50:12.018Z,98753.22
2023-01-28T20:52:40.956Z,98754.19
2023-01-28T20:55:11.840Z,98749.16
2023-01-28T20:57:40.662Z,98758.13
2023-01-28T21:00:11.744Z,98756.56
2023-01-28T21:02:43.833Z,98757.28
2023-01-28T21:05:13.280Z,98760.09
2023-01-28T21:07:42.256Z,98766.13
2023-01-28T21:10:13.530Z,98765.44
2023-01-28T21:12:42.300Z,98765.44
2023-01-28T21:15:12.413Z,98765.66
2023-01-28T21:17:41.103Z,98767.53
2023-01-28T21:20:12.157Z,98769.06
2023-01-28T21:22:40.986Z,98765.31
2023-01-28T21:25:11.817Z,98764.06
2023-01-28T21:27:40.393Z,98768.81
2023-01-28T21:30:11.133Z,98763.44
2023-01-28T21:32:40.196Z,98758.19
2023-01-28T21:35:10.630Z,98759.13
2023-01-28T21:37:39.804Z,98774.72
2023-01-28T21:40:12.486Z,98772.75
2023-01-28T21:42:41.229Z,98765.78
2023-01-28T21:45:11.559Z,98771.13
2023-01-28T21:47:40.403Z,98774.00
2023-01-28T21:50:10.641Z,98771.81
2023-01-28T21:52:39.356Z,98771.78
2023-01-28T21:55:09.541Z,98769.66
2023-01-28T21:57:39.671Z,98774.94
2023-01-28T22:00:10.904Z,98772.50
2023-01-28T22:02:42.707Z,98776.91
2023-01-28T22:05:11.471Z,98768.56
2023-01-28T22:07:40.074Z,98775.88
2023-01-28T22:10:11.230Z,98767.41
2023-01-28T22:12:41.395Z,98774.38
2023-01-28T22:15:11.437Z,98767.75
2023-01-28T22:17:40.048Z,98773.34
2023-01-28T22:20:11.424Z,98778.09
2023-01-28T22:22:40.387Z,98777.28
2023-01-28T22:25:10.620Z,98774.59
2023-01-28T22:27:40.785Z,98774.59
2023-01-28T22:30:11.772Z,98774.72
2023-01-28T22:32:40.673Z,98775.44
2023-01-28T22:35:10.127Z,98774.28
2023-01-28T22:37:38.822Z,98774.88
2023-01-28T22:40:09.073Z,98771.94
2023-01-28T22:42:37.717Z,98771.84
2023-01-28T22:45:10.594Z,98771.13
2023-01-28T22:47:39.295Z,98775.19
2023-01-28T22:50:08.739Z,98771.59
2023-01-28T22:52:37.397Z,98776.97
2023-01-28T22:55:07.389Z,98764.00
2023-01-28T22:57:36.554Z,98767.75
2023-01-28T23:00:12.054Z,98761.03
2023-01-28T23:02:40.967Z,98764.88
2023-01-28T23:05:10.158Z,98765.09
2023-01-28T23:07:38.860Z,98761.25
2023-01-28T23:10:09.926Z,98761.38
2023-01-28T23:12:38.751Z,98760.78
2023-01-28T23:15:24.929Z,98768.94
2023-01-28T23:18:11.102Z,98765.56
2023-01-28T23:20:58.450Z,98765.81
2023-01-28T23:23:45.291Z,98770.69
2023-01-28T23:26:14.423Z,98783.13
2023-01-28T23:28:43.114Z,98794.75
2023-01-28T23:31:13.373Z,98794.50
2023-01-28T23:33:42.102Z,98799.16
2023-01-28T23:36:10.915Z,98809.50
2023-01-28T23:38:39.442Z,98800.44
2023-01-28T23:41:08.980Z,98802.16
2023-01-28T23:43:37.643Z,98802.88
2023-01-28T23:46:06.676Z,98795.22
2023-01-28T23:48:36.734Z,98784.41
2023-01-28T23:51:07.736Z,98787.19
2023-01-28T23:53:36.465Z,98787.44
2023-01-28T23:56:07.540Z,98784.28
2023-01-28T23:58:43.242Z,98788.63
